Gardner, Massachusetts
Current Conditions -  °F | °C
As of 12:52 PM on Saturday 25 Oct 2014 (Local Time) from KFIT Reporting Station
Clear Clear  
Wind Chill: 63°   Ceiling: Unl
Heat Index: 63°   Visibility: 10mi
Dew Point: 40°   Wind: 10mph
Humidity: 43%   Direction: 300°WNW
Pressure: 29.69"   Gusts: NA
Location:  42.57°N, 71.99°W
Report Text: KFIT 251652Z AUTO 30009KT 10SM CLR 17/04 A2969 RMK AO2 SLP055 T01720044
Loading
Personal Weather Stations






























Interactive Weather Map
Tropical Storm Tracking
New forecast layout! Learn more

10-Day Weather Forecast

Advertisements
Track Severe Weather on mobile